Time;durP1;ratioP1;P1;durP2;ratioP2;P2;SDS_P1;SDS_P2;PMS_P1;PMS_P2;Temp;Humidity;BMP_temperature;BMP_pressure;BME280_temperature;BME280_humidity;BME280_pressure;Samples;Min_cycle;Max_cycle;Signal;HPM_P1;HPM_P2
2023/07/08 00:00:24;;;;;;;5.82;3.55;;;17.50;99.90;;;;;;5078432;28;20083;-71
2023/07/08 00:02:50;;;;;;;7.43;3.70;;;17.50;99.90;;;;;;5078896;28;20134;-71
2023/07/08 00:05:19;;;;;;;5.57;3.35;;;17.50;99.90;;;;;;5079033;28;20048;-71
2023/07/08 00:07:46;;;;;;;5.95;3.30;;;17.40;99.90;;;;;;5096166;28;20040;-71
2023/07/08 00:10:22;;;;;;;7.72;3.50;;;17.40;99.90;;;;;;5078896;28;20050;-72
2023/07/08 00:12:56;;;;;;;7.43;3.55;;;17.30;99.90;;;;;;5078859;28;20510;-71
2023/07/08 00:15:34;;;;;;;8.02;3.42;;;17.30;99.90;;;;;;5078212;28;20090;-71
2023/07/08 00:18:00;;;;;;;5.53;3.35;;;17.30;99.90;;;;;;5097173;28;20115;-71
2023/07/08 00:20:36;;;;;;;5.35;3.45;;;17.30;99.90;;;;;;5078467;28;20432;-71
2023/07/08 00:23:03;;;;;;;7.22;3.40;;;17.40;99.90;;;;;;5096380;28;20090;-71
2023/07/08 00:25:30;;;;;;;6.97;3.67;;;17.40;99.90;;;;;;5090838;28;20069;-70
2023/07/08 00:27:56;;;;;;;9.50;3.40;;;17.30;99.90;;;;;;5097501;28;20395;-71
2023/07/08 00:30:27;;;;;;;7.05;3.47;;;17.30;99.90;;;;;;5099059;28;20047;-71
2023/07/08 00:32:54;;;;;;;6.55;3.55;;;17.30;99.90;;;;;;5116591;28;20490;-71
2023/07/08 00:35:36;;;;;;;6.72;3.30;;;17.30;99.90;;;;;;5116023;28;20398;-71
2023/07/08 00:38:12;;;;;;;5.60;3.33;;;17.30;99.90;;;;;;5097708;28;20043;-71
2023/07/08 00:40:47;;;;;;;6.57;3.50;;;17.40;99.90;;;;;;5116777;28;20052;-71
2023/07/08 00:43:14;;;;;;;7.10;4.00;;;17.40;99.90;;;;;;5116165;28;20047;-71
2023/07/08 00:45:47;;;;;;;5.90;3.30;;;17.40;99.90;;;;;;5088606;28;20400;-71
2023/07/08 00:48:39;;;;;;;6.45;3.20;;;17.40;99.90;;;;;;5079360;28;20040;-71
2023/07/08 00:51:10;;;;;;;6.63;3.00;;;17.40;99.90;;;;;;5091456;28;20082;-70
2023/07/08 00:53:37;;;;;;;5.25;3.28;;;17.40;99.90;;;;;;5095374;28;20395;-71
2023/07/08 00:56:06;;;;;;;6.38;4.05;;;17.40;99.90;;;;;;5095037;28;20075;-71
2023/07/08 00:58:46;;;;;;;7.15;3.42;;;17.30;99.90;;;;;;5095613;28;20052;-71
2023/07/08 01:01:12;;;;;;;7.60;3.20;;;17.40;99.90;;;;;;5078258;28;20108;-72
2023/07/08 01:03:49;;;;;;;6.90;3.45;;;17.30;99.90;;;;;;5094574;28;20039;-72
2023/07/08 01:06:17;;;;;;;5.72;3.50;;;17.30;99.90;;;;;;5077215;28;20177;-71
2023/07/08 01:08:45;;;;;;;6.47;3.80;;;17.40;99.90;;;;;;5077075;28;20048;-71
2023/07/08 01:11:13;;;;;;;6.18;3.45;;;17.30;99.90;;;;;;5076311;28;20096;-71
2023/07/08 01:13:43;;;;;;;5.55;3.40;;;17.30;99.90;;;;;;5077235;28;20524;-71
2023/07/08 01:16:14;;;;;;;9.77;3.45;;;17.30;99.90;;;;;;5077495;28;20044;-71
2023/07/08 01:18:41;;;;;;;7.18;3.70;;;17.30;99.90;;;;;;5076410;28;20059;-71
2023/07/08 01:21:36;;;;;;;5.70;3.58;;;17.30;99.90;;;;;;5083732;28;20127;-71
2023/07/08 01:24:09;;;;;;;5.82;3.60;;;17.30;99.90;;;;;;5077222;28;20052;-71
2023/07/08 01:26:40;;;;;;;6.80;3.45;;;17.30;99.90;;;;;;5076416;28;20468;-73
2023/07/08 01:29:07;;;;;;;6.07;3.55;;;17.20;99.90;;;;;;5095179;28;20044;-74
2023/07/08 01:31:34;;;;;;;7.57;3.40;;;17.20;99.90;;;;;;5093933;28;20047;-74
2023/07/08 01:34:00;;;;;;;6.15;3.60;;;17.20;99.90;;;;;;5094172;28;20051;-71
2023/07/08 01:36:33;;;;;;;6.47;3.50;;;17.20;99.90;;;;;;5076805;28;20078;-71
2023/07/08 01:38:59;;;;;;;8.38;4.15;;;17.10;99.90;;;;;;5076681;28;20044;-71
2023/07/08 01:41:25;;;;;;;5.22;3.40;;;17.00;99.90;;;;;;5076344;28;20164;-71
2023/07/08 01:43:50;;;;;;;6.22;3.90;;;17.00;99.90;;;;;;5094582;28;20048;-71
2023/07/08 01:46:43;;;;;;;6.65;4.05;;;16.90;99.90;;;;;;5076274;28;20119;-71
2023/07/08 01:49:09;;;;;;;7.88;5.00;;;16.90;99.90;;;;;;5093656;28;20048;-71
2023/07/08 01:51:35;;;;;;;6.18;3.63;;;16.80;99.90;;;;;;5110270;28;20372;-72
2023/07/08 01:54:01;;;;;;;7.45;4.15;;;16.70;99.90;;;;;;5075545;28;20512;-71
2023/07/08 01:56:27;;;;;;;6.97;4.25;;;16.70;99.90;;;;;;5094192;28;20437;-71
2023/07/08 01:58:52;;;;;;;7.35;4.25;;;16.60;99.90;;;;;;5094099;28;20554;-71
2023/07/08 02:01:18;;;;;;;8.35;4.53;;;16.60;99.90;;;;;;5112988;28;20043;-71
2023/07/08 02:03:46;;;;;;;8.52;4.63;;;16.50;99.90;;;;;;5095854;28;20039;-71
2023/07/08 02:06:12;;;;;;;6.72;4.45;;;16.40;99.90;;;;;;5095624;28;20048;-72
2023/07/08 02:08:40;;;;;;;6.07;4.45;;;16.40;99.90;;;;;;5096015;28;20046;-71
2023/07/08 02:11:06;;;;;;;7.05;4.03;;;16.40;99.90;;;;;;5114176;28;20054;-72
2023/07/08 02:13:31;;;;;;;6.80;4.50;;;16.30;99.90;;;;;;5112641;28;20411;-72
2023/07/08 02:15:57;;;;;;;8.02;4.38;;;16.30;99.90;;;;;;5097047;28;20105;-72
2023/07/08 02:18:26;;;;;;;7.90;4.45;;;16.30;99.90;;;;;;5096068;28;20487;-71
2023/07/08 02:20:51;;;;;;;8.43;5.53;;;16.30;99.90;;;;;;5094542;28;20533;-71
2023/07/08 02:23:18;;;;;;;7.93;4.50;;;16.20;99.90;;;;;;5095721;28;20047;-71
2023/07/08 02:25:54;;;;;;;7.45;4.30;;;16.20;99.90;;;;;;5096182;28;20043;-71
2023/07/08 02:28:20;;;;;;;;;;;16.10;99.90;;;;;;5114457;28;20039;-72
2023/07/08 02:30:48;;;;;;;8.57;4.23;;;16.60;99.90;;;;;;5114624;28;19977;-71
2023/07/08 02:33:17;;;;;;;8.05;4.63;;;16.10;99.90;;;;;;5096513;28;20402;-71
2023/07/08 02:35:44;;;;;;;10.02;4.63;;;16.00;99.90;;;;;;5095655;28;20083;-71
2023/07/08 02:38:10;;;;;;;8.05;4.47;;;16.00;99.90;;;;;;5114263;28;20084;-71
2023/07/08 02:40:35;;;;;;;8.40;4.70;;;16.00;99.90;;;;;;5113198;28;20036;-71
2023/07/08 02:43:04;;;;;;;7.60;4.75;;;15.90;99.90;;;;;;5095346;28;20046;-71
2023/07/08 02:45:32;;;;;;;7.93;4.55;;;15.90;99.90;;;;;;5115338;28;20039;-71
2023/07/08 02:47:58;;;;;;;10.35;5.00;;;15.90;99.90;;;;;;5096263;28;20046;-71
2023/07/08 02:50:24;;;;;;;8.00;4.93;;;15.80;99.90;;;;;;5116621;28;20122;-70
2023/07/08 02:52:50;;;;;;;6.75;4.47;;;15.80;99.90;;;;;;5087252;28;20044;-70
2023/07/08 02:55:16;;;;;;;8.93;4.90;;;15.80;99.90;;;;;;5113787;28;20051;-71
2023/07/08 02:57:41;;;;;;;6.95;5.00;;;15.80;99.90;;;;;;5114819;28;20051;-71
2023/07/08 03:00:08;;;;;;;7.28;4.90;;;15.80;99.90;;;;;;5114253;28;20089;-71
2023/07/08 03:02:33;;;;;;;8.60;5.03;;;15.70;99.90;;;;;;5095935;28;20510;-71
2023/07/08 03:05:00;;;;;;;8.23;5.00;;;15.70;99.90;;;;;;5096188;28;20039;-71
2023/07/08 03:07:26;;;;;;;7.65;4.90;;;15.70;99.90;;;;;;5113455;28;20084;-71
2023/07/08 03:09:52;;;;;;;7.82;4.90;;;15.70;99.90;;;;;;5095048;28;20052;-71
2023/07/08 03:12:17;;;;;;;7.95;5.15;;;15.70;99.90;;;;;;5114792;28;20095;-71
2023/07/08 03:14:43;;;;;;;9.57;5.50;;;15.70;99.90;;;;;;5088729;28;20126;-73
2023/07/08 03:17:08;;;;;;;8.38;4.90;;;15.70;99.90;;;;;;5093158;28;20400;-72
2023/07/08 03:19:34;;;;;;;7.43;4.95;;;15.70;99.90;;;;;;5075184;28;20101;-73
2023/07/08 03:22:02;;;;;;;9.52;5.65;;;15.70;99.90;;;;;;5093691;28;20417;-72
2023/07/08 03:24:29;;;;;;;9.25;5.30;;;15.60;99.90;;;;;;5092938;28;20044;-72
2023/07/08 03:26:55;;;;;;;7.97;4.90;;;15.60;99.90;;;;;;5093801;28;20068;-72
2023/07/08 03:29:21;;;;;;;8.40;5.35;;;15.60;99.90;;;;;;5095344;28;20556;-72
2023/07/08 03:31:47;;;;;;;8.82;5.47;;;15.60;99.90;;;;;;5076038;28;20075;-72
2023/07/08 03:34:15;;;;;;;8.23;5.00;;;15.60;99.90;;;;;;5098035;28;20125;-72
2023/07/08 03:36:48;;;;;;;9.13;5.35;;;15.60;99.90;;;;;;5080004;28;20055;-72
2023/07/08 03:39:18;;;;;;;8.32;5.40;;;15.60;99.90;;;;;;5088434;28;20115;-72
2023/07/08 03:41:44;;;;;;;9.95;5.10;;;15.60;99.90;;;;;;5116919;28;20436;-72
2023/07/08 03:44:11;;;;;;;9.20;5.50;;;15.60;99.90;;;;;;5098510;28;20122;-72
2023/07/08 03:46:37;;;;;;;11.40;5.82;;;15.60;99.90;;;;;;5099026;28;20047;-72
2023/07/08 03:49:02;;;;;;;7.88;5.22;;;15.60;99.90;;;;;;5117455;28;20042;-72
2023/07/08 03:51:40;;;;;;;10.65;5.50;;;15.60;99.90;;;;;;5115891;28;20071;-72
2023/07/08 03:54:11;;;;;;;8.40;5.47;;;15.60;99.90;;;;;;5098910;28;20075;-72
2023/07/08 03:56:39;;;;;;;8.68;5.10;;;15.60;99.90;;;;;;5117500;28;20050;-73
2023/07/08 03:59:05;;;;;;;8.93;6.05;;;15.60;99.90;;;;;;5089673;28;20055;-73
2023/07/08 04:01:32;;;;;;;7.13;5.53;;;15.60;99.90;;;;;;5088702;28;20047;-73
2023/07/08 04:04:00;;;;;;;7.55;5.00;;;15.50;99.90;;;;;;5099784;28;20075;-73
2023/07/08 04:06:28;;;;;;;10.65;5.70;;;15.60;99.90;;;;;;5116311;28;20082;-73
2023/07/08 04:08:54;;;;;;;8.43;5.50;;;15.60;99.90;;;;;;5094831;28;20442;-73
2023/07/08 04:11:26;;;;;;;9.07;5.43;;;15.60;99.90;;;;;;5100514;28;20043;-73
2023/07/08 04:13:54;;;;;;;9.20;5.90;;;15.70;99.90;;;;;;5094471;28;20860;-73
2023/07/08 04:16:28;;;;;;;7.97;5.30;;;15.70;99.90;;;;;;5094961;28;20040;-72
2023/07/08 04:18:55;;;;;;;8.40;6.00;;;15.70;99.90;;;;;;5108238;28;20523;-71
2023/07/08 04:21:22;;;;;;;9.80;5.47;;;15.70;99.90;;;;;;5103884;28;20048;-72
2023/07/08 04:23:51;;;;;;;8.38;5.65;;;15.70;99.90;;;;;;5095806;28;20051;-72
2023/07/08 04:26:18;;;;;;;9.43;5.63;;;15.80;99.90;;;;;;5096175;28;20040;-72
2023/07/08 04:28:47;;;;;;;10.30;5.28;;;15.80;99.90;;;;;;5077483;28;20068;-72
2023/07/08 04:31:13;;;;;;;8.00;5.65;;;15.80;99.90;;;;;;5079171;28;20055;-72
2023/07/08 04:33:41;;;;;;;8.05;5.35;;;15.80;99.90;;;;;;5077984;28;20822;-73
2023/07/08 04:36:13;;;;;;;8.20;5.60;;;15.90;99.90;;;;;;5096603;28;20051;-73
2023/07/08 04:38:41;;;;;;;8.65;5.68;;;15.90;99.90;;;;;;5077979;28;20055;-73
2023/07/08 04:41:07;;;;;;;11.48;5.60;;;16.00;99.90;;;;;;5077629;28;20055;-72
2023/07/08 04:43:33;;;;;;;10.77;5.72;;;16.00;99.90;;;;;;5077698;28;20048;-73
2023/07/08 04:45:59;;;;;;;7.57;5.10;;;16.10;99.90;;;;;;5095714;28;20125;-72
2023/07/08 04:48:25;;;;;;;9.77;5.10;;;16.10;99.90;;;;;;5095257;28;20044;-72
2023/07/08 04:50:52;;;;;;;9.20;5.70;;;16.20;99.90;;;;;;5096300;28;20032;-72
2023/07/08 04:53:18;;;;;;;11.65;5.72;;;16.30;99.90;;;;;;5078163;28;20043;-72
2023/07/08 04:55:50;;;;;;;8.27;5.28;;;16.30;99.90;;;;;;5076877;28;20046;-73
2023/07/08 04:58:20;;;;;;;12.60;6.07;;;16.40;99.90;;;;;;5078236;28;20036;-73
2023/07/08 05:00:45;;;;;;;7.65;5.75;;;16.40;99.90;;;;;;5112327;28;20052;-73
2023/07/08 05:03:11;;;;;;;8.45;5.85;;;16.50;99.90;;;;;;5095368;28;20047;-72
2023/07/08 05:05:38;;;;;;;9.48;5.50;;;16.50;99.90;;;;;;5096889;28;20074;-72
2023/07/08 05:08:04;;;;;;;8.73;5.28;;;16.60;99.90;;;;;;5115418;28;20055;-72
2023/07/08 05:10:29;;;;;;;9.57;5.35;;;16.60;99.90;;;;;;5114164;28;20031;-73
2023/07/08 05:12:55;;;;;;;7.85;5.70;;;16.70;99.90;;;;;;5113724;28;20553;-72
2023/07/08 05:15:21;;;;;;;9.35;5.70;;;16.70;99.90;;;;;;5102754;28;20040;-73
2023/07/08 05:17:47;;;;;;;9.32;5.55;;;16.70;99.90;;;;;;5074455;28;20043;-73
2023/07/08 05:20:14;;;;;;;6.97;5.47;;;16.80;99.90;;;;;;5074525;28;20040;-74
2023/07/08 05:22:43;;;;;;;9.15;5.47;;;16.80;99.90;;;;;;5073466;28;20443;-74
2023/07/08 05:25:15;;;;;;;7.82;5.20;;;16.90;99.90;;;;;;5092969;28;20041;-73
2023/07/08 05:27:41;;;;;;;6.80;5.13;;;16.90;99.90;;;;;;5074060;28;20046;-73
2023/07/08 05:30:11;;;;;;;7.25;5.30;;;17.00;99.90;;;;;;5101995;28;20575;-74
2023/07/08 05:32:37;;;;;;;8.90;5.38;;;17.00;99.90;;;;;;5096111;28;20134;-74
2023/07/08 05:35:03;;;;;;;8.45;5.03;;;17.10;99.90;;;;;;5096950;28;20483;-73
2023/07/08 05:37:29;;;;;;;9.65;5.43;;;17.20;99.90;;;;;;5095684;28;20391;-73
2023/07/08 05:39:55;;;;;;;9.00;5.32;;;17.20;99.90;;;;;;5115511;28;20483;-72
2023/07/08 05:42:22;;;;;;;7.88;4.90;;;17.30;99.90;;;;;;5115607;28;20051;-71
2023/07/08 05:44:54;;;;;;;7.50;4.82;;;17.40;99.90;;;;;;5113920;28;20047;-72
2023/07/08 05:47:21;;;;;;;10.68;5.35;;;17.40;99.90;;;;;;5097256;28;20135;-73
2023/07/08 05:49:47;;;;;;;11.13;4.90;;;17.50;99.90;;;;;;5097597;28;20046;-73
2023/07/08 05:52:13;;;;;;;8.32;4.85;;;17.50;99.90;;;;;;5097412;28;20096;-73
2023/07/08 05:54:40;;;;;;;6.82;5.07;;;17.60;99.90;;;;;;5096645;28;20065;-73
2023/07/08 05:57:10;;;;;;;7.57;4.60;;;17.70;99.90;;;;;;5097315;28;20108;-72
2023/07/08 05:59:38;;;;;;;9.80;5.13;;;17.80;99.90;;;;;;5112562;28;20086;-72
2023/07/08 06:02:05;;;;;;;7.60;4.80;;;17.80;99.90;;;;;;5114608;28;20043;-72
2023/07/08 06:04:32;;;;;;;7.93;4.65;;;17.90;99.90;;;;;;5097149;28;20043;-72
2023/07/08 06:06:58;;;;;;;6.97;4.88;;;18.00;99.90;;;;;;5096831;28;20040;-73
2023/07/08 06:09:26;;;;;;;8.38;4.72;;;18.00;99.90;;;;;;5104037;28;20058;-72
2023/07/08 06:11:52;;;;;;;8.20;4.70;;;18.10;99.90;;;;;;5074424;28;20087;-72
2023/07/08 06:14:21;;;;;;;6.85;4.82;;;18.10;99.90;;;;;;5076515;28;20044;-72
2023/07/08 06:16:46;;;;;;;9.50;5.00;;;18.20;99.90;;;;;;5093893;28;20079;-72
2023/07/08 06:19:14;;;;;;;7.22;4.88;;;18.30;99.90;;;;;;5093453;28;20083;-73
2023/07/08 06:21:43;;;;;;;6.65;4.75;;;18.40;99.90;;;;;;5093750;28;20113;-74
2023/07/08 06:24:10;;;;;;;8.65;4.80;;;18.50;99.90;;;;;;5105352;28;20047;-74
2023/07/08 06:26:39;;;;;;;5.70;4.18;;;18.60;99.90;;;;;;5078396;28;20065;-74
2023/07/08 06:29:07;;;;;;;7.68;4.60;;;18.70;99.90;;;;;;5081210;28;20046;-72
2023/07/08 06:31:33;;;;;;;6.85;4.45;;;19.90;99.90;;;;;;5092499;28;20040;-72
2023/07/08 06:34:00;;;;;;;7.50;4.40;;;18.90;99.90;;;;;;5062475;28;20044;-74
2023/07/08 06:36:26;;;;;;;8.23;4.90;;;19.00;99.90;;;;;;5064304;28;20131;-74
2023/07/08 06:38:52;;;;;;;6.35;4.28;;;19.10;99.90;;;;;;5060720;28;20448;-73
2023/07/08 06:41:17;;;;;;;6.22;4.43;;;19.20;99.90;;;;;;5057520;28;20408;-73
2023/07/08 06:43:43;;;;;;;8.35;4.20;;;19.30;99.90;;;;;;5061130;28;20388;-74
2023/07/08 06:46:09;;;;;;;8.30;4.07;;;19.40;99.90;;;;;;5061596;28;20064;-73
2023/07/08 06:48:35;;;;;;;6.68;3.85;;;19.50;99.90;;;;;;5061458;28;20461;-74
2023/07/08 06:51:03;;;;;;;6.32;3.92;;;19.60;99.90;;;;;;5061535;28;20033;-74
2023/07/08 06:53:29;;;;;;;6.28;3.80;;;19.70;99.90;;;;;;5061144;28;20373;-77
2023/07/08 06:55:55;;;;;;;7.03;4.05;;;19.80;99.90;;;;;;5062779;28;20567;-76
2023/07/08 06:58:27;;;;;;;6.20;3.63;;;19.90;99.90;;;;;;5052977;28;20366;-74
2023/07/08 07:00:58;;;;;;;5.45;3.50;;;20.00;99.90;;;;;;5053591;28;20041;-72
2023/07/08 07:03:24;;;;;;;5.85;3.80;;;20.10;99.90;;;;;;5071701;28;20443;-74
2023/07/08 07:05:50;;;;;;;6.93;4.05;;;20.20;99.90;;;;;;5072308;28;20033;-75
2023/07/08 07:08:15;;;;;;;7.68;3.63;;;20.40;99.90;;;;;;5071915;28;20044;-73
2023/07/08 07:10:42;;;;;;;7.38;3.72;;;20.50;99.90;;;;;;5072392;28;20076;-73
2023/07/08 07:13:08;;;;;;;5.65;3.53;;;20.60;99.90;;;;;;5072505;28;20127;-74
2023/07/08 07:15:34;;;;;;;6.22;3.70;;;20.70;99.90;;;;;;5070612;28;20136;-73
2023/07/08 07:18:00;;;;;;;5.80;3.80;;;20.80;99.90;;;;;;5071370;28;20511;-74
2023/07/08 07:20:26;;;;;;;10.00;3.67;;;21.00;99.90;;;;;;5072381;28;20529;-72
2023/07/08 07:22:53;;;;;;;6.20;3.70;;;21.20;99.90;;;;;;5063346;28;20139;-73
2023/07/08 07:25:19;;;;;;;7.10;3.65;;;21.40;99.90;;;;;;5053103;28;20075;-74
2023/07/08 07:27:45;;;;;;;6.57;3.40;;;22.00;99.90;;;;;;5051599;28;20049;-77
2023/07/08 07:30:15;;;;;;;7.38;2.97;;;22.90;99.90;;;;;;5051898;28;20121;-81
2023/07/08 07:32:42;;;;;;;7.00;3.20;;;23.70;99.90;;;;;;5054395;28;20083;-77
2023/07/08 07:37:57;;;;;;;8.77;3.35;;;25.10;97.20;;;;;;5114292;22;20508;-86
2023/07/08 07:40:23;;;;;;;10.38;3.30;;;25.60;97.20;;;;;;5055166;28;20087;-79
2023/07/08 07:42:49;;;;;;;6.80;2.85;;;26.10;96.60;;;;;;5054216;28;20048;-84
2023/07/08 07:45:19;;;;;;;7.15;3.22;;;26.50;95.90;;;;;;5071500;28;20033;-77
2023/07/08 07:47:45;;;;;;;4.68;2.90;;;27.00;95.40;;;;;;5073008;28;20485;-76
2023/07/08 07:50:11;;;;;;;6.97;3.45;;;27.30;94.90;;;;;;5072367;28;20044;-78
2023/07/08 07:52:36;;;;;;;5.13;3.28;;;27.80;94.50;;;;;;5053922;28;20048;-76
2023/07/08 07:55:03;;;;;;;23.02;6.53;;;28.00;94.10;;;;;;5073033;28;20032;-75
2023/07/08 07:57:29;;;;;;;6.43;3.20;;;28.30;94.20;;;;;;5072292;28;20044;-77
2023/07/08 07:59:54;;;;;;;4.88;3.08;;;28.60;93.60;;;;;;5053812;28;20047;-74
2023/07/08 08:02:23;;;;;;;6.13;3.17;;;29.00;92.70;;;;;;5060390;28;20052;-77
2023/07/08 08:07:41;;;;;;;7.05;3.03;;;29.50;92.70;;;;;;5070859;28;20056;-77
2023/07/08 08:10:41;;;;;;;6.50;3.15;;;29.90;91.50;;;;;;5054712;28;20127;-78
2023/07/08 08:13:08;;;;;;;4.85;3.20;;;29.80;91.10;;;;;;5056750;28;20045;-77
2023/07/08 08:15:37;;;;;;;6.50;3.20;;;30.30;91.70;;;;;;5054145;28;20069;-78
2023/07/08 08:18:06;;;;;;;6.43;3.13;;;30.50;91.50;;;;;;5073646;28;20084;-80
2023/07/08 08:20:32;;;;;;;5.30;2.80;;;30.90;90.70;;;;;;5056671;28;20595;-76
2023/07/08 08:22:57;;;;;;;4.85;2.70;;;31.30;89.90;;;;;;5071579;28;20159;-76
2023/07/08 08:25:24;;;;;;;5.20;2.70;;;31.50;90.80;;;;;;5077243;28;20495;-77
2023/07/08 08:27:52;;;;;;;5.22;2.95;;;31.50;91.10;;;;;;5074529;28;20099;-77
2023/07/08 08:30:20;;;;;;;3.80;2.70;;;31.50;90.00;;;;;;5091550;22;20045;-76
2023/07/08 08:32:46;;;;;;;6.65;2.88;;;31.30;88.60;;;;;;5036427;28;20049;-78
2023/07/08 08:35:14;;;;;;;6.82;2.85;;;31.30;89.30;;;;;;5018656;28;20040;-75
2023/07/08 08:37:41;;;;;;;5.82;2.85;;;31.20;88.10;;;;;;5028371;28;20045;-74
2023/07/08 08:40:16;;;;;;;6.03;2.50;;;31.30;88.60;;;;;;5052934;28;20041;-74
2023/07/08 08:42:49;;;;;;;7.30;3.25;;;31.70;89.30;;;;;;5039298;28;20048;-75
2023/07/08 08:45:18;;;;;;;5.68;2.80;;;31.80;88.40;;;;;;5053372;28;20523;-75
2023/07/08 08:47:47;;;;;;;5.88;3.00;;;32.00;86.90;;;;;;5053581;28;20086;-75
2023/07/08 08:50:18;;;;;;;6.57;2.95;;;32.20;87.80;;;;;;5023987;28;20083;-74
2023/07/08 08:52:44;;;;;;;6.22;2.70;;;32.60;87.60;;;;;;5055313;28;20040;-73
2023/07/08 08:55:14;;;;;;;9.40;2.97;;;32.70;87.50;;;;;;5046985;28;20037;-73
2023/07/08 08:57:49;;;;;;;4.65;2.78;;;32.90;87.00;;;;;;5073819;28;20393;-75
2023/07/08 09:00:29;;;;;;;5.20;2.65;;;32.90;85.60;;;;;;5074703;28;20477;-74
2023/07/08 09:03:27;;;;;;;6.80;2.65;;;32.80;86.70;;;;;;5073616;28;20056;-76
2023/07/08 09:05:58;;;;;;;5.03;2.90;;;32.90;83.80;;;;;;5018793;28;20049;-74
2023/07/08 09:08:34;;;;;;;5.57;2.97;;;33.00;84.20;;;;;;5032997;28;20045;-74
2023/07/08 09:11:22;;;;;;;3.95;2.50;;;33.00;84.60;;;;;;5034402;28;20041;-76
2023/07/08 09:13:51;;;;;;;5.47;2.75;;;33.10;84.60;;;;;;4990366;28;20543;-75
2023/07/08 09:16:45;;;;;;;5.25;2.80;;;33.20;86.50;;;;;;5036738;28;20457;-76
2023/07/08 09:19:19;;;;;;;4.18;2.60;;;33.40;85.70;;;;;;5070773;28;20488;-76
2023/07/08 09:21:57;;;;;;;5.27;3.03;;;33.40;85.20;;;;;;5031796;28;20115;-75
2023/07/08 09:24:31;;;;;;;3.55;2.30;;;33.50;84.90;;;;;;5016722;28;20394;-76
2023/07/08 09:27:00;;;;;;;5.18;2.80;;;33.80;82.70;;;;;;5033993;28;20069;-73
2023/07/08 09:29:31;;;;;;;6.97;2.80;;;33.80;84.10;;;;;;5055206;28;20048;-74
2023/07/08 09:31:58;;;;;;;4.07;2.72;;;34.00;83.30;;;;;;5038960;28;20496;-74
2023/07/08 09:34:37;;;;;;;5.45;2.60;;;33.90;83.60;;;;;;5037829;28;20102;-73
2023/07/08 09:37:18;;;;;;;4.72;2.92;;;33.70;83.70;;;;;;5067298;28;20047;-74
2023/07/08 09:39:44;;;;;;;5.72;2.70;;;33.80;83.40;;;;;;5055477;28;20348;-74
2023/07/08 09:42:12;;;;;;;6.20;3.25;;;33.80;84.00;;;;;;5035725;28;20055;-74
2023/07/08 09:44:50;;;;;;;4.75;2.80;;;33.70;83.70;;;;;;5052005;28;20052;-74
2023/07/08 09:47:30;;;;;;;4.30;2.70;;;33.70;84.10;;;;;;5424072;22;20049;-72
2023/07/08 09:53:01;;;;;;;6.00;2.92;;;34.00;84.60;;;;;;5043379;28;20056;-73
2023/07/08 09:55:31;;;;;;;4.03;2.60;;;34.20;83.90;;;;;;5251462;22;20069;-74
2023/07/08 09:58:06;;;;;;;6.25;2.88;;;34.40;83.10;;;;;;5095447;28;20421;-77
2023/07/08 10:01:01;;;;;;;7.80;3.08;;;34.40;83.70;;;;;;5086267;28;20054;-74
2023/07/08 10:04:11;;;;;;;9.73;2.90;;;34.60;83.60;;;;;;5114350;28;20483;-75
2023/07/08 10:06:54;;;;;;;4.55;2.60;;;34.60;84.40;;;;;;5066242;28;20056;-75
2023/07/08 10:09:25;;;;;;;10.25;2.80;;;35.00;84.30;;;;;;5113232;28;20051;-74
2023/07/08 10:12:04;;;;;;;5.18;2.78;;;35.10;83.10;;;;;;5092686;28;20044;-75
2023/07/08 10:14:45;;;;;;;5.60;2.50;;;34.80;84.60;;;;;;5097958;28;20119;-74
2023/07/08 10:17:26;;;;;;;5.75;2.70;;;34.80;83.00;;;;;;5064895;28;20056;-72
2023/07/08 10:20:14;;;;;;;4.75;2.83;;;34.80;82.00;;;;;;5095527;28;20131;-74
2023/07/08 10:23:22;;;;;;;4.43;2.60;;;35.00;82.90;;;;;;5076255;28;20395;-71
2023/07/08 10:26:34;;;;;;;5.15;2.63;;;35.00;81.20;;;;;;5096117;28;20052;-71
2023/07/08 10:29:12;;;;;;;5.82;2.80;;;35.00;82.90;;;;;;5114046;28;20040;-72
2023/07/08 10:32:01;;;;;;;4.60;2.83;;;35.10;83.10;;;;;;5099024;28;20044;-72
2023/07/08 10:34:39;;;;;;;7.63;2.92;;;35.00;80.30;;;;;;5075058;28;20044;-72
2023/07/08 10:37:19;;;;;;;4.72;2.70;;;34.90;84.80;;;;;;5093082;28;20090;-72
2023/07/08 10:40:15;;;;;;;5.15;2.67;;;35.00;83.50;;;;;;5092861;28;20040;-73
2023/07/08 10:43:06;;;;;;;4.70;2.92;;;35.00;83.90;;;;;;5092948;28;20036;-74
2023/07/08 10:45:54;;;;;;;4.53;2.90;;;35.20;82.20;;;;;;5074606;28;20609;-72
2023/07/08 10:48:47;;;;;;;6.45;2.92;;;35.30;84.20;;;;;;5092732;28;20032;-72
2023/07/08 10:51:38;;;;;;;4.65;2.90;;;35.50;83.30;;;;;;5206972;22;20189;-72
2023/07/08 10:54:26;;;;;;;5.85;2.70;;;35.70;82.10;;;;;;5071616;28;20467;-73
2023/07/08 10:57:17;;;;;;;7.82;3.00;;;35.60;82.10;;;;;;5071960;28;20044;-72
2023/07/08 11:00:03;;;;;;;4.85;2.97;;;35.50;81.70;;;;;;5054997;28;20411;-72
2023/07/08 11:03:04;;;;;;;4.70;3.00;;;35.60;82.70;;;;;;5074375;28;20044;-73
2023/07/08 11:05:38;;;;;;;5.38;3.00;;;35.80;80.40;;;;;;5092097;28;20048;-71
2023/07/08 11:08:09;;;;;;;5.95;3.10;;;35.80;81.50;;;;;;5073990;28;20047;-74
2023/07/08 11:10:58;;;;;;;6.60;2.90;;;35.80;81.90;;;;;;5083758;28;20040;-72
2023/07/08 11:13:27;;;;;;;5.78;2.92;;;35.40;79.80;;;;;;5092968;28;20044;-73
2023/07/08 11:16:16;;;;;;;4.13;2.65;;;35.50;80.30;;;;;;5088278;28;20042;-73
2023/07/08 11:18:48;;;;;;;4.00;2.65;;;35.50;81.40;;;;;;5059804;28;20057;-74
2023/07/08 11:21:19;;;;;;;4.10;2.67;;;35.40;81.20;;;;;;5181785;22;20686;-75
2023/07/08 11:24:14;;;;;;;5.85;2.80;;;35.40;82.20;;;;;;5110069;28;20372;-72
2023/07/08 11:26:50;;;;;;;6.00;2.90;;;35.50;79.30;;;;;;5087722;28;20055;-74
2023/07/08 11:29:30;;;;;;;5.60;2.90;;;35.50;81.70;;;;;;5091912;28;20073;-73
2023/07/08 11:31:56;;;;;;;5.18;2.88;;;35.50;82.40;;;;;;5092432;28;20483;-74
2023/07/08 11:34:25;;;;;;;4.95;2.72;;;35.30;81.20;;;;;;5111233;28;20201;-74
2023/07/08 11:36:52;;;;;;;5.13;3.00;;;35.30;80.10;;;;;;5111934;28;20062;-74
2023/07/08 11:39:54;;;;;;;5.82;2.92;;;35.20;79.70;;;;;;5112655;28;20043;-74
2023/07/08 11:42:25;;;;;;;5.55;3.05;;;34.90;77.00;;;;;;5101496;28;20051;-74
2023/07/08 11:44:56;;;;;;;6.45;2.97;;;34.80;77.60;;;;;;5106342;28;20086;-73
2023/07/08 11:47:37;;;;;;;6.53;2.95;;;34.60;81.10;;;;;;5103358;28;20058;-74
2023/07/08 11:50:06;;;;;;;4.57;2.95;;;34.50;82.50;;;;;;5088000;28;20391;-74
2023/07/08 11:52:32;;;;;;;5.15;3.20;;;34.50;82.20;;;;;;5094812;28;20491;-73
2023/07/08 11:55:20;;;;;;;5.78;3.33;;;34.60;81.10;;;;;;5079217;28;20044;-74
2023/07/08 11:57:52;;;;;;;5.95;3.20;;;34.70;78.90;;;;;;5095089;28;20039;-74
2023/07/08 12:00:25;;;;;;;6.00;3.53;;;34.80;78.90;;;;;;5077670;28;20047;-74
2023/07/08 12:03:19;;;;;;;5.75;3.10;;;34.80;80.20;;;;;;5093586;28;20601;-74
2023/07/08 12:05:46;;;;;;;8.73;3.30;;;34.80;80.00;;;;;;5103218;28;20055;-74
2023/07/08 12:08:17;;;;;;;4.70;3.30;;;34.70;80.10;;;;;;5096881;28;20079;-74
2023/07/08 12:10:51;;;;;;;9.15;2.88;;;34.80;80.20;;;;;;5097242;28;20044;-74
2023/07/08 12:13:21;;;;;;;5.53;3.28;;;34.80;81.80;;;;;;5098136;28;20027;-74
2023/07/08 12:15:47;;;;;;;5.22;3.35;;;34.80;81.90;;;;;;5098025;28;20055;-74
2023/07/08 12:18:19;;;;;;;4.40;3.40;;;34.80;82.00;;;;;;5097173;28;20084;-75
2023/07/08 12:21:30;;;;;;;;;;;;;;;;;;;;;
2023/07/08 12:24:40;;;;;;;6.72;3.30;;;34.20;80.50;;;;;;5035574;28;20079;-74
2023/07/08 12:27:09;;;;;;;8.00;3.65;;;33.60;78.30;;;;;;5013513;28;20060;-75
2023/07/08 12:29:34;;;;;;;6.70;3.63;;;34.10;83.20;;;;;;5108599;22;20016;-74
2023/07/08 12:32:10;;;;;;;7.25;3.97;;;34.40;81.10;;;;;;5056447;28;20135;-74
2023/07/08 12:34:36;;;;;;;;;;;34.40;81.90;;;;;;5074820;28;20508;-74
2023/07/08 12:37:03;;;;;;;8.75;3.90;;;34.50;82.60;;;;;;5056724;28;19931;-75
2023/07/08 12:39:34;;;;;;;5.57;3.35;;;34.40;80.60;;;;;;5074676;28;20408;-74
2023/07/08 12:42:00;;;;;;;5.63;3.78;;;34.30;81.60;;;;;;5057551;28;20076;-74
2023/07/08 12:44:26;;;;;;;5.50;3.50;;;34.30;80.80;;;;;;5075393;28;20075;-74
2023/07/08 12:46:55;;;;;;;6.40;3.47;;;34.30;81.40;;;;;;5073381;28;20048;-75
2023/07/08 12:49:26;;;;;;;4.68;3.17;;;34.30;80.90;;;;;;5075756;28;20063;-74
2023/07/08 12:51:52;;;;;;;5.90;3.42;;;34.40;80.80;;;;;;5073956;28;20037;-76
2023/07/08 12:54:18;;;;;;;4.63;3.35;;;34.40;80.70;;;;;;5055825;28;20193;-74
2023/07/08 12:56:45;;;;;;;5.47;2.92;;;34.40;79.90;;;;;;5056244;28;20040;-75
2023/07/08 12:59:18;;;;;;;5.32;3.47;;;34.50;80.20;;;;;;5073299;28;20119;-75
2023/07/08 13:01:47;;;;;;;5.78;3.35;;;34.30;79.10;;;;;;5075017;28;20036;-74
2023/07/08 13:04:13;;;;;;;6.10;3.63;;;34.10;77.60;;;;;;5057899;28;20442;-74
2023/07/08 13:06:44;;;;;;;8.45;3.70;;;34.20;80.20;;;;;;5085592;28;20070;-83
2023/07/08 13:09:36;;;;;;;4.85;3.40;;;34.30;79.70;;;;;;5063796;28;20439;-90
2023/07/08 13:12:27;;;;;;;7.35;3.30;;;34.30;80.50;;;;;;5176197;22;20011;-94
2023/07/08 13:14:56;;;;;;;6.35;3.38;;;34.20;79.00;;;;;;5096124;28;20517;-77
2023/07/08 13:17:48;;;;;;;9.15;3.67;;;34.20;76.90;;;;;;5113548;28;20044;-75